createdAt,value
2023-05-23T00:00:52.401Z,16.60
2023-05-23T00:03:22.865Z,16.60
2023-05-23T00:05:52.304Z,16.60
2023-05-23T00:08:23.394Z,16.50
2023-05-23T00:10:52.952Z,16.50
2023-05-23T00:13:22.978Z,16.50
2023-05-23T00:15:52.351Z,16.40
2023-05-23T00:18:22.499Z,16.40
2023-05-23T00:20:52.729Z,16.40
2023-05-23T00:23:25.391Z,16.30
2023-05-23T00:25:54.576Z,16.30
2023-05-23T00:28:24.276Z,16.30
2023-05-23T00:30:53.906Z,16.30
2023-05-23T00:33:23.827Z,16.20
2023-05-23T00:35:53.669Z,16.20
2023-05-23T00:38:23.821Z,16.20
2023-05-23T00:40:52.691Z,16.20
2023-05-23T00:43:23.077Z,16.20
2023-05-23T00:45:52.575Z,16.20
2023-05-23T00:48:22.190Z,16.20
2023-05-23T00:50:51.263Z,16.20
2023-05-23T00:53:20.180Z,16.10
2023-05-23T00:55:51.616Z,16.10
2023-05-23T00:58:21.658Z,16.10
2023-05-23T01:00:54.654Z,16.10
2023-05-23T01:03:23.868Z,16.00
2023-05-23T01:05:53.219Z,16.00
2023-05-23T01:08:24.694Z,16.00
2023-05-23T01:10:54.993Z,16.00
2023-05-23T01:13:32.310Z,15.90
2023-05-23T01:16:08.487Z,15.90
2023-05-23T01:18:42.126Z,15.90
2023-05-23T01:21:17.423Z,15.90
2023-05-23T01:24:30.745Z,15.90
2023-05-23T01:27:12.321Z,15.90
2023-05-23T01:29:48.607Z,15.90
2023-05-23T01:32:19.246Z,16.00
2023-05-23T01:34:50.812Z,16.00
2023-05-23T01:37:20.117Z,16.00
2023-05-23T01:39:49.118Z,16.00
2023-05-23T01:42:18.203Z,15.90
2023-05-23T01:44:49.488Z,15.90
2023-05-23T01:47:19.699Z,15.90
2023-05-23T01:49:49.965Z,15.90
2023-05-23T01:52:21.429Z,15.90
2023-05-23T01:54:52.731Z,15.90
2023-05-23T01:57:22.478Z,15.90
2023-05-23T01:59:53.416Z,15.90
2023-05-23T02:02:24.907Z,15.90
2023-05-23T02:04:57.559Z,16.00
2023-05-23T02:07:26.205Z,16.00
2023-05-23T02:09:56.471Z,16.10
2023-05-23T02:12:24.972Z,16.20
2023-05-23T02:14:56.239Z,16.20
2023-05-23T02:17:25.209Z,16.30
2023-05-23T02:19:55.087Z,16.30
2023-05-23T02:22:25.770Z,16.40
2023-05-23T02:24:55.102Z,16.40
2023-05-23T02:27:24.628Z,16.40
2023-05-23T02:29:57.477Z,16.50
2023-05-23T02:32:27.426Z,16.40
2023-05-23T02:34:58.337Z,16.50
2023-05-23T02:37:29.041Z,16.50
2023-05-23T02:39:59.463Z,16.50
2023-05-23T02:42:30.820Z,16.50
2023-05-23T02:45:01.575Z,16.60
2023-05-23T02:47:30.348Z,16.60
2023-05-23T02:50:00.600Z,16.60
2023-05-23T02:52:30.099Z,16.60
2023-05-23T02:55:02.279Z,16.60
2023-05-23T02:57:35.941Z,16.60
2023-05-23T03:00:12.182Z,16.70
2023-05-23T03:02:41.967Z,16.70
2023-05-23T03:05:11.812Z,16.70
2023-05-23T03:07:40.435Z,16.70
2023-05-23T03:10:11.008Z,16.80
2023-05-23T03:12:40.118Z,16.80
2023-05-23T03:15:12.891Z,16.70
2023-05-23T03:17:46.112Z,16.80
2023-05-23T03:20:17.784Z,16.80
2023-05-23T03:22:46.608Z,16.80
2023-05-23T03:25:18.697Z,16.80
2023-05-23T03:27:47.494Z,16.80
2023-05-23T03:30:18.260Z,16.80
2023-05-23T03:32:46.919Z,16.80
2023-05-23T03:35:17.447Z,16.90
2023-05-23T03:37:46.925Z,16.90
2023-05-23T03:40:16.154Z,16.80
2023-05-23T03:42:46.185Z,16.80
2023-05-23T03:45:18.518Z,16.90
2023-05-23T03:47:47.597Z,16.90
2023-05-23T03:50:16.888Z,16.90
2023-05-23T03:52:47.024Z,16.90
2023-05-23T03:55:16.468Z,17.00
2023-05-23T03:57:45.400Z,16.90
2023-05-23T04:00:17.148Z,17.00
2023-05-23T04:02:47.130Z,17.00
2023-05-23T04:05:19.676Z,17.00
2023-05-23T04:07:51.562Z,17.00
2023-05-23T04:10:21.439Z,17.00
2023-05-23T04:12:51.670Z,17.00
2023-05-23T04:15:22.397Z,17.00
2023-05-23T04:17:56.563Z,17.00
2023-05-23T04:20:29.680Z,17.00
2023-05-23T04:22:58.210Z,17.00
2023-05-23T04:25:28.683Z,17.00
2023-05-23T04:28:20.803Z,17.10
2023-05-23T04:30:51.023Z,17.10
2023-05-23T04:33:24.549Z,17.10
2023-05-23T04:35:53.284Z,17.10
2023-05-23T04:38:25.113Z,17.10
2023-05-23T04:40:55.246Z,17.20
2023-05-23T04:43:44.558Z,17.20
2023-05-23T04:46:33.797Z,17.20
2023-05-23T04:49:15.942Z,17.20
2023-05-23T04:51:47.242Z,17.20
2023-05-23T04:54:29.875Z,17.20
2023-05-23T04:57:00.632Z,17.30
2023-05-23T04:59:32.330Z,17.30
2023-05-23T05:02:02.874Z,17.40
2023-05-23T05:04:31.218Z,17.40
2023-05-23T05:07:01.022Z,17.40
2023-05-23T05:09:31.264Z,17.50
2023-05-23T05:12:03.090Z,17.50
2023-05-23T05:14:32.274Z,17.50
2023-05-23T05:17:04.287Z,17.50
2023-05-23T05:19:44.355Z,17.60
2023-05-23T05:22:13.007Z,17.60
2023-05-23T05:24:42.166Z,17.70
2023-05-23T05:27:12.186Z,17.70
2023-05-23T05:29:41.354Z,17.70
2023-05-23T05:32:11.785Z,17.80
2023-05-23T05:34:40.863Z,17.80
2023-05-23T05:37:14.218Z,17.90
2023-05-23T05:39:47.544Z,17.90
2023-05-23T05:42:18.030Z,18.00
2023-05-23T05:44:47.246Z,18.10
2023-05-23T05:47:19.366Z,18.20
2023-05-23T05:49:49.087Z,18.30
2023-05-23T05:52:19.102Z,18.40
2023-05-23T05:54:47.698Z,18.40
2023-05-23T05:57:16.745Z,18.50
2023-05-23T05:59:45.289Z,18.50
2023-05-23T06:02:17.607Z,18.50
2023-05-23T06:04:49.512Z,18.50
2023-05-23T06:07:19.205Z,18.40
2023-05-23T06:09:49.128Z,18.40
2023-05-23T06:12:18.160Z,18.40
2023-05-23T06:14:47.979Z,18.40
2023-05-23T06:17:19.297Z,18.40
2023-05-23T06:19:49.412Z,18.50
2023-05-23T06:22:20.778Z,18.50
2023-05-23T06:24:50.312Z,18.50
2023-05-23T06:27:19.760Z,18.50
2023-05-23T06:29:48.600Z,18.50
2023-05-23T06:32:18.846Z,18.50
2023-05-23T06:34:47.646Z,18.60
2023-05-23T06:37:17.981Z,18.70
2023-05-23T06:39:47.065Z,18.80
2023-05-23T06:42:16.942Z,18.90
2023-05-23T06:44:59.353Z,18.90
2023-05-23T06:47:29.831Z,19.00
2023-05-23T06:49:58.860Z,19.00
2023-05-23T06:52:27.462Z,19.00
2023-05-23T06:54:56.358Z,19.00
2023-05-23T06:57:26.189Z,19.00
2023-05-23T06:59:56.826Z,19.00
2023-05-23T07:02:25.448Z,19.00
2023-05-23T07:04:55.689Z,18.90
2023-05-23T07:07:45.648Z,18.90
2023-05-23T07:10:14.929Z,18.80
2023-05-23T07:12:44.211Z,18.80
2023-05-23T07:15:13.734Z,18.70
2023-05-23T07:17:53.763Z,18.70
2023-05-23T07:20:24.608Z,18.80
2023-05-23T07:23:01.081Z,18.90
2023-05-23T07:25:30.687Z,19.00
2023-05-23T07:27:59.805Z,19.20
2023-05-23T07:30:29.094Z,19.30
2023-05-23T07:33:00.572Z,19.40
2023-05-23T07:35:32.002Z,19.40
2023-05-23T07:38:02.114Z,19.30
2023-05-23T07:40:31.630Z,19.40
2023-05-23T07:43:00.711Z,19.40
2023-05-23T07:45:30.446Z,19.40
2023-05-23T07:48:00.731Z,19.30
2023-05-23T07:50:31.937Z,19.30
2023-05-23T07:53:01.445Z,19.30
2023-05-23T07:55:33.883Z,19.30
2023-05-23T07:58:03.765Z,19.30
2023-05-23T08:00:33.493Z,19.40
2023-05-23T08:03:13.529Z,19.40
2023-05-23T08:05:56.529Z,19.50
2023-05-23T08:08:26.452Z,19.50
2023-05-23T08:10:56.368Z,19.50
2023-05-23T08:13:34.268Z,19.60
2023-05-23T08:16:36.680Z,19.60
2023-05-23T08:19:09.594Z,19.60
2023-05-23T08:21:39.751Z,19.70
2023-05-23T08:24:08.787Z,19.70
2023-05-23T08:26:38.894Z,19.70
2023-05-23T08:29:10.581Z,19.70
2023-05-23T08:31:39.828Z,19.70
2023-05-23T08:34:12.416Z,19.80
2023-05-23T08:36:43.335Z,19.90
2023-05-23T08:39:17.323Z,20.00
2023-05-23T08:42:07.332Z,20.10
2023-05-23T08:44:36.140Z,20.10
2023-05-23T08:47:06.781Z,20.20
2023-05-23T08:49:57.921Z,20.30
2023-05-23T08:52:31.653Z,20.50
2023-05-23T08:55:03.912Z,20.60
2023-05-23T08:57:33.790Z,20.70
2023-05-23T09:00:18.137Z,20.90
2023-05-23T09:02:48.995Z,21.20
2023-05-23T09:05:38.048Z,21.50
2023-05-23T09:08:09.431Z,21.90
2023-05-23T09:10:38.540Z,22.20
2023-05-23T09:13:10.204Z,22.30
2023-05-23T09:15:57.760Z,22.40
2023-05-23T09:18:28.367Z,22.60
2023-05-23T09:20:58.568Z,22.90
2023-05-23T09:23:33.336Z,23.00
2023-05-23T09:26:05.947Z,23.10
2023-05-23T09:28:36.400Z,23.20
2023-05-23T09:31:09.070Z,23.30
2023-05-23T09:33:41.725Z,23.30
2023-05-23T09:36:11.425Z,23.40
2023-05-23T09:38:43.510Z,23.40
2023-05-23T09:41:13.560Z,23.30
2023-05-23T09:43:51.923Z,23.30
2023-05-23T09:46:22.542Z,23.50
2023-05-23T09:48:54.099Z,23.70
2023-05-23T09:51:24.930Z,24.00
2023-05-23T09:53:57.098Z,24.10
2023-05-23T09:56:28.906Z,24.30
2023-05-23T09:59:02.126Z,24.50
2023-05-23T10:01:34.164Z,24.50
2023-05-23T10:04:05.572Z,24.90
2023-05-23T10:06:43.847Z,25.30
2023-05-23T10:09:18.979Z,25.30
2023-05-23T10:12:44.513Z,25.30
2023-05-23T10:15:17.877Z,25.50
2023-05-23T10:18:02.366Z,25.90
2023-05-23T10:20:34.102Z,26.20
2023-05-23T10:23:05.324Z,26.60
2023-05-23T10:25:37.688Z,26.70
2023-05-23T10:28:08.495Z,26.90
2023-05-23T10:30:37.405Z,27.20
2023-05-23T10:33:08.957Z,27.40
2023-05-23T10:35:49.671Z,27.40
2023-05-23T10:38:33.983Z,27.60
2023-05-23T10:41:12.207Z,27.10
2023-05-23T10:43:50.511Z,26.60
2023-05-23T10:46:23.113Z,26.00
2023-05-23T10:48:57.928Z,25.60
2023-05-23T10:51:26.839Z,25.40
2023-05-23T10:53:56.338Z,25.20
2023-05-23T10:56:32.905Z,24.80
2023-05-23T10:59:01.771Z,24.50
2023-05-23T11:01:30.666Z,24.30
2023-05-23T11:03:59.719Z,23.90
2023-05-23T11:06:34.436Z,23.70
2023-05-23T11:09:10.984Z,23.50
2023-05-23T11:12:05.220Z,23.40
2023-05-23T11:14:54.915Z,23.30
2023-05-23T11:17:36.321Z,23.20
2023-05-23T11:20:09.088Z,23.00
2023-05-23T11:22:38.008Z,23.10
2023-05-23T11:25:11.055Z,23.30
2023-05-23T11:27:43.374Z,23.30
2023-05-23T11:30:15.718Z,23.30
2023-05-23T11:32:45.624Z,23.20
2023-05-23T11:35:14.510Z,23.20
2023-05-23T11:37:43.560Z,23.30
2023-05-23T11:40:32.632Z,23.30
2023-05-23T11:43:05.461Z,23.40
2023-05-23T11:45:37.563Z,23.30
2023-05-23T11:48:11.636Z,23.50
2023-05-23T11:50:50.427Z,23.50
2023-05-23T11:53:21.819Z,23.70
2023-05-23T11:55:53.930Z,23.70
2023-05-23T11:58:28.515Z,24.00
2023-05-23T12:01:02.337Z,24.10
2023-05-23T12:03:33.001Z,24.40
2023-05-23T12:06:03.799Z,24.80
2023-05-23T12:08:33.980Z,25.40
2023-05-23T12:11:02.948Z,25.80
2023-05-23T12:13:33.293Z,26.00
2023-05-23T12:16:05.204Z,26.40
2023-05-23T12:18:36.000Z,26.70
2023-05-23T12:21:11.392Z,26.80
2023-05-23T12:23:41.805Z,26.60
2023-05-23T12:26:11.683Z,26.30
2023-05-23T12:28:45.183Z,26.10
2023-05-23T12:31:18.028Z,26.10
2023-05-23T12:33:50.188Z,26.20
2023-05-23T12:36:26.384Z,26.40
2023-05-23T12:39:03.606Z,26.50
2023-05-23T12:41:34.277Z,26.50
2023-05-23T12:44:05.257Z,26.10
2023-05-23T12:46:34.183Z,25.60
2023-05-23T12:49:03.362Z,25.10
2023-05-23T12:51:32.349Z,24.80
2023-05-23T12:54:01.258Z,24.40
2023-05-23T12:56:29.717Z,24.10
2023-05-23T12:58:58.736Z,23.90
2023-05-23T13:01:29.368Z,23.70
2023-05-23T13:03:58.043Z,23.80
2023-05-23T13:06:27.805Z,23.80
2023-05-23T13:08:56.935Z,23.80
2023-05-23T13:11:27.120Z,23.70
2023-05-23T13:13:56.335Z,23.60
2023-05-23T13:16:25.442Z,23.60
2023-05-23T13:18:57.006Z,23.50
2023-05-23T13:21:26.209Z,23.60
2023-05-23T13:23:56.224Z,23.70
2023-05-23T13:26:24.921Z,23.80
2023-05-23T13:28:53.777Z,23.70
2023-05-23T13:31:24.129Z,23.80
2023-05-23T13:33:54.393Z,23.80
2023-05-23T13:36:23.465Z,23.70
2023-05-23T13:38:53.494Z,23.90
2023-05-23T13:41:23.536Z,24.00
2023-05-23T13:43:57.236Z,24.00
2023-05-23T13:46:25.976Z,24.10
2023-05-23T13:48:56.148Z,24.30
2023-05-23T13:51:24.361Z,24.50
2023-05-23T13:53:53.116Z,24.60
2023-05-23T13:56:21.883Z,24.50
2023-05-23T13:58:50.277Z,24.70
2023-05-23T14:01:20.188Z,24.90
2023-05-23T14:03:48.947Z,25.10
2023-05-23T14:06:19.103Z,25.00
2023-05-23T14:08:47.808Z,24.90
2023-05-23T14:11:16.989Z,25.00
2023-05-23T14:13:45.894Z,25.10
2023-05-23T14:16:15.143Z,25.40
2023-05-23T14:18:44.125Z,25.60
2023-05-23T14:21:13.057Z,25.70
2023-05-23T14:23:43.407Z,25.80
2023-05-23T14:26:12.058Z,25.70
2023-05-23T14:28:40.967Z,25.70
2023-05-23T14:31:10.624Z,25.50
2023-05-23T14:33:39.387Z,25.30
2023-05-23T14:36:08.557Z,25.30
2023-05-23T14:38:39.118Z,25.20
2023-05-23T14:41:09.141Z,25.20
2023-05-23T14:43:40.465Z,25.10
2023-05-23T14:46:09.682Z,25.20
2023-05-23T14:48:38.246Z,25.30
2023-05-23T14:51:08.951Z,25.40
2023-05-23T14:53:37.801Z,25.50
2023-05-23T14:56:07.194Z,25.60
2023-05-23T14:58:40.591Z,25.60
2023-05-23T15:01:10.498Z,25.50
2023-05-23T15:03:39.252Z,25.30
2023-05-23T15:06:08.538Z,25.10
2023-05-23T15:08:37.325Z,24.80
2023-05-23T15:11:06.757Z,24.50
2023-05-23T15:13:37.024Z,24.20
2023-05-23T15:16:07.518Z,24.00
2023-05-23T15:18:41.905Z,23.60
2023-05-23T15:21:13.393Z,23.40
2023-05-23T15:23:42.170Z,23.30
2023-05-23T15:26:11.076Z,23.00
2023-05-23T15:28:41.455Z,22.80
2023-05-23T15:31:10.212Z,22.60
2023-05-23T15:33:39.757Z,22.50
2023-05-23T15:36:09.402Z,22.50
2023-05-23T15:38:38.581Z,22.60
2023-05-23T15:41:07.232Z,22.90
2023-05-23T15:43:36.847Z,23.20
2023-05-23T15:46:07.295Z,23.20
2023-05-23T15:48:37.630Z,23.20
2023-05-23T15:51:07.145Z,23.30
2023-05-23T15:53:47.782Z,23.30
2023-05-23T15:56:25.988Z,23.10
2023-05-23T15:58:54.822Z,23.20
2023-05-23T16:01:25.266Z,23.30
2023-05-23T16:03:53.793Z,23.30
2023-05-23T16:06:22.671Z,23.30
2023-05-23T16:08:51.864Z,23.30
2023-05-23T16:11:21.257Z,23.20
2023-05-23T16:13:50.547Z,23.00
2023-05-23T16:16:19.224Z,23.00
2023-05-23T16:18:49.615Z,23.00
2023-05-23T16:21:20.995Z,23.00
2023-05-23T16:23:50.144Z,23.00
2023-05-23T16:26:19.730Z,22.90
2023-05-23T16:28:48.575Z,22.70
2023-05-23T16:31:18.451Z,22.60
2023-05-23T16:33:48.901Z,22.50
2023-05-23T16:36:17.848Z,22.40
2023-05-23T16:38:47.031Z,22.20
2023-05-23T16:41:15.666Z,22.00
2023-05-23T16:43:44.586Z,21.90
2023-05-23T16:46:13.893Z,21.70
2023-05-23T16:48:42.669Z,21.60
2023-05-23T16:51:12.883Z,21.40
2023-05-23T16:53:41.773Z,21.30
2023-05-23T16:56:11.097Z,21.30
2023-05-23T16:58:39.909Z,21.20
2023-05-23T17:01:09.510Z,21.20
2023-05-23T17:03:38.978Z,21.10
2023-05-23T17:06:08.847Z,21.10
2023-05-23T17:08:41.610Z,21.10
2023-05-23T17:11:11.700Z,21.10
2023-05-23T17:13:41.401Z,21.10
2023-05-23T17:16:10.757Z,21.10
2023-05-23T17:18:39.605Z,21.20
2023-05-23T17:21:08.403Z,21.20
2023-05-23T17:23:38.686Z,21.20
2023-05-23T17:26:07.553Z,21.00
2023-05-23T17:28:36.351Z,20.80
2023-05-23T17:31:04.919Z,20.70
2023-05-23T17:33:33.633Z,20.50
2023-05-23T17:36:02.155Z,20.50
2023-05-23T17:38:32.069Z,20.40
2023-05-23T17:41:02.563Z,20.30
2023-05-23T17:43:31.400Z,20.10
2023-05-23T17:46:03.565Z,19.90
2023-05-23T17:48:46.411Z,19.80
2023-05-23T17:51:16.807Z,19.80
2023-05-23T17:53:46.030Z,19.70
2023-05-23T17:56:16.605Z,19.60
2023-05-23T17:58:46.283Z,19.50
2023-05-23T18:01:15.197Z,19.40
2023-05-23T18:03:47.159Z,19.40
2023-05-23T18:06:16.284Z,19.20
2023-05-23T18:08:45.285Z,19.20
2023-05-23T18:11:16.092Z,19.10
2023-05-23T18:13:45.057Z,19.00
2023-05-23T18:16:13.724Z,19.00
2023-05-23T18:18:42.367Z,18.90
2023-05-23T18:21:11.211Z,18.90
2023-05-23T18:23:40.341Z,18.80
2023-05-23T18:26:09.055Z,18.70
2023-05-23T18:28:39.034Z,18.70
2023-05-23T18:31:09.094Z,18.70
2023-05-23T18:33:38.292Z,18.70
2023-05-23T18:36:09.103Z,18.70
2023-05-23T18:38:37.682Z,18.60
2023-05-23T18:41:07.503Z,18.60
2023-05-23T18:43:36.643Z,18.50
2023-05-23T18:46:07.145Z,18.40
2023-05-23T18:48:36.266Z,18.30
2023-05-23T18:51:07.054Z,18.20
2023-05-23T18:53:35.666Z,18.20
2023-05-23T18:56:05.023Z,18.20
2023-05-23T18:58:33.734Z,18.20
2023-05-23T19:01:03.897Z,18.10
2023-05-23T19:03:37.226Z,18.00
2023-05-23T19:06:08.649Z,18.00
2023-05-23T19:08:37.536Z,17.90
2023-05-23T19:11:07.745Z,17.80
2023-05-23T19:13:36.266Z,17.70
2023-05-23T19:16:06.695Z,17.70
2023-05-23T19:18:38.071Z,17.60
2023-05-23T19:21:07.219Z,17.50
2023-05-23T19:23:36.505Z,17.40
2023-05-23T19:26:05.057Z,17.40
2023-05-23T19:28:33.694Z,17.30
2023-05-23T19:31:05.139Z,17.20
2023-05-23T19:33:36.076Z,17.20
2023-05-23T19:36:06.926Z,17.20
2023-05-23T19:38:36.448Z,17.10
2023-05-23T19:41:07.305Z,17.10
2023-05-23T19:43:37.346Z,17.00
2023-05-23T19:46:07.052Z,17.00
2023-05-23T19:48:36.014Z,17.00
2023-05-23T19:51:08.475Z,16.90
2023-05-23T19:53:38.319Z,16.90
2023-05-23T19:56:08.469Z,16.90
2023-05-23T19:58:38.414Z,16.90
2023-05-23T20:01:07.591Z,16.80
2023-05-23T20:03:36.583Z,16.80
2023-05-23T20:06:07.077Z,16.70
2023-05-23T20:08:35.718Z,16.70
2023-05-23T20:11:04.230Z,16.70
2023-05-23T20:13:33.015Z,16.70
2023-05-23T20:16:02.377Z,16.70
2023-05-23T20:18:36.383Z,16.60
2023-05-23T20:21:06.626Z,16.60
2023-05-23T20:23:37.234Z,16.50
2023-05-23T20:26:07.076Z,16.50
2023-05-23T20:28:37.638Z,16.50
2023-05-23T20:31:08.208Z,16.50
2023-05-23T20:33:37.130Z,16.50
2023-05-23T20:36:09.056Z,16.40
2023-05-23T20:38:38.407Z,16.40
2023-05-23T20:41:08.392Z,16.40
2023-05-23T20:43:37.664Z,16.40
2023-05-23T20:46:06.830Z,16.40
2023-05-23T20:48:36.267Z,16.40
2023-05-23T20:51:08.631Z,16.30
2023-05-23T20:53:37.957Z,16.30
2023-05-23T20:56:11.362Z,16.30
2023-05-23T20:58:40.859Z,16.30
2023-05-23T21:01:09.914Z,16.20
2023-05-23T21:03:40.590Z,16.20
2023-05-23T21:06:10.661Z,16.20
2023-05-23T21:08:39.821Z,16.20
2023-05-23T21:11:09.122Z,16.20
2023-05-23T21:13:39.901Z,16.10
2023-05-23T21:16:12.459Z,16.10
2023-05-23T21:18:41.875Z,16.10
2023-05-23T21:21:12.390Z,16.10
2023-05-23T21:23:41.694Z,16.00
2023-05-23T21:26:10.527Z,16.00
2023-05-23T21:28:39.631Z,15.90
2023-05-23T21:31:08.528Z,15.90
2023-05-23T21:33:37.226Z,15.90
2023-05-23T21:36:06.048Z,15.80
2023-05-23T21:38:39.864Z,15.80
2023-05-23T21:41:08.928Z,15.80
2023-05-23T21:43:37.507Z,15.80
2023-05-23T21:46:06.556Z,15.80
2023-05-23T21:48:36.537Z,15.80
2023-05-23T21:51:07.038Z,15.80
2023-05-23T21:53:37.994Z,15.80
2023-05-23T21:56:07.768Z,15.80
2023-05-23T21:58:36.987Z,15.80
2023-05-23T22:01:05.520Z,15.80
2023-05-23T22:03:34.922Z,15.80
2023-05-23T22:06:04.069Z,15.70
2023-05-23T22:08:33.491Z,15.70
2023-05-23T22:11:04.768Z,15.70
2023-05-23T22:13:33.954Z,15.70
2023-05-23T22:16:05.223Z,15.70
2023-05-23T22:21:09.489Z,15.70
2023-05-23T22:23:38.670Z,15.60
2023-05-23T22:26:08.930Z,15.60
2023-05-23T22:28:37.485Z,15.50
2023-05-23T22:31:06.842Z,15.40
2023-05-23T22:33:35.988Z,15.40
2023-05-23T22:36:05.056Z,15.20
2023-05-23T22:38:33.821Z,15.20
2023-05-23T22:41:04.383Z,15.20
2023-05-23T22:43:34.697Z,15.10
2023-05-23T22:46:03.737Z,15.10
2023-05-23T22:48:34.141Z,15.10
2023-05-23T22:51:03.664Z,15.00
2023-05-23T22:53:33.607Z,15.00
2023-05-23T22:56:04.318Z,15.00
2023-05-23T22:58:34.433Z,15.00
2023-05-23T23:01:02.944Z,15.00
2023-05-23T23:03:32.071Z,14.90
2023-05-23T23:06:00.832Z,14.90
2023-05-23T23:08:29.474Z,14.90
2023-05-23T23:10:58.023Z,14.80
2023-05-23T23:13:26.785Z,14.80
2023-05-23T23:15:58.667Z,14.70
2023-05-23T23:18:27.996Z,14.70
2023-05-23T23:20:57.259Z,14.70
2023-05-23T23:23:25.982Z,14.60
2023-05-23T23:25:54.504Z,14.60
2023-05-23T23:28:23.274Z,14.60
2023-05-23T23:30:52.514Z,14.60
2023-05-23T23:33:23.373Z,14.50
2023-05-23T23:35:53.013Z,14.50
2023-05-23T23:38:21.708Z,14.40
2023-05-23T23:40:50.247Z,14.40
2023-05-23T23:43:20.784Z,14.40
2023-05-23T23:45:49.997Z,14.30
2023-05-23T23:48:18.872Z,14.30
2023-05-23T23:50:49.541Z,14.30
2023-05-23T23:53:21.333Z,14.30
2023-05-23T23:55:51.005Z,14.30
2023-05-23T23:58:22.729Z,14.30
